sensor_id;sensor_type;location;lat;lon;timestamp;pressure;altitude;pressure_sealevel;temperature;humidity
20228;BME280;12195;55.790;37.572;2023-02-28T00:01:27;100291.90;;;-5.62;72.33
20228;BME280;12195;55.790;37.572;2023-02-28T00:04:00;100293.75;;;-5.55;72.40
20228;BME280;12195;55.790;37.572;2023-02-28T00:06:32;100290.31;;;-5.56;72.38
20228;BME280;12195;55.790;37.572;2023-02-28T00:09:04;100286.04;;;-5.57;72.48
20228;BME280;12195;55.790;37.572;2023-02-28T00:11:36;100283.61;;;-5.49;72.47
20228;BME280;12195;55.790;37.572;2023-02-28T00:14:08;100280.28;;;-5.45;72.40
20228;BME280;12195;55.790;37.572;2023-02-28T00:16:40;100273.52;;;-5.43;72.35
20228;BME280;12195;55.790;37.572;2023-02-28T00:19:12;100268.45;;;-5.40;72.28
20228;BME280;12195;55.790;37.572;2023-02-28T00:21:44;100264.15;;;-5.41;72.19
20228;BME280;12195;55.790;37.572;2023-02-28T00:24:16;100265.90;;;-5.40;72.03
20228;BME280;12195;55.790;37.572;2023-02-28T00:26:49;100270.02;;;-5.48;72.21
20228;BME280;12195;55.790;37.572;2023-02-28T00:29:21;100265.74;;;-5.48;72.34
20228;BME280;12195;55.790;37.572;2023-02-28T00:31:53;100264.88;;;-5.50;72.45
20228;BME280;12195;55.790;37.572;2023-02-28T00:34:25;100263.90;;;-5.56;72.46
20228;BME280;12195;55.790;37.572;2023-02-28T00:36:57;100263.80;;;-5.61;72.31
20228;BME280;12195;55.790;37.572;2023-02-28T00:39:29;100260.41;;;-5.60;72.45
20228;BME280;12195;55.790;37.572;2023-02-28T00:42:02;100252.70;;;-5.63;72.10
20228;BME280;12195;55.790;37.572;2023-02-28T00:44:34;100253.52;;;-5.64;71.99
20228;BME280;12195;55.790;37.572;2023-02-28T00:47:06;100255.06;;;-5.72;71.82
20228;BME280;12195;55.790;37.572;2023-02-28T00:49:38;100246.42;;;-5.80;72.04
20228;BME280;12195;55.790;37.572;2023-02-28T00:52:11;100244.06;;;-5.69;71.74
20228;BME280;12195;55.790;37.572;2023-02-28T00:54:43;100255.84;;;-5.76;71.79
20228;BME280;12195;55.790;37.572;2023-02-28T00:57:17;100244.61;;;-5.87;71.80
20228;BME280;12195;55.790;37.572;2023-02-28T00:59:49;100236.00;;;-5.91;71.81
20228;BME280;12195;55.790;37.572;2023-02-28T01:02:22;100224.06;;;-5.92;71.82
20228;BME280;12195;55.790;37.572;2023-02-28T01:04:55;100222.45;;;-5.88;71.88
20228;BME280;12195;55.790;37.572;2023-02-28T01:07:27;100217.30;;;-5.89;72.02
20228;BME280;12195;55.790;37.572;2023-02-28T01:09:59;100212.26;;;-5.85;72.09
20228;BME280;12195;55.790;37.572;2023-02-28T01:12:31;100210.55;;;-5.86;72.32
20228;BME280;12195;55.790;37.572;2023-02-28T01:15:04;100207.24;;;-5.79;72.27
20228;BME280;12195;55.790;37.572;2023-02-28T01:17:36;100201.23;;;-5.82;72.43
20228;BME280;12195;55.790;37.572;2023-02-28T01:20:09;100195.27;;;-5.83;72.52
20228;BME280;12195;55.790;37.572;2023-02-28T01:22:41;100184.27;;;-5.76;72.39
20228;BME280;12195;55.790;37.572;2023-02-28T01:25:14;100173.23;;;-5.75;72.35
20228;BME280;12195;55.790;37.572;2023-02-28T01:27:47;100168.84;;;-5.83;72.50
20228;BME280;12195;55.790;37.572;2023-02-28T01:30:19;100160.23;;;-5.88;72.66
20228;BME280;12195;55.790;37.572;2023-02-28T01:32:51;100169.59;;;-5.89;72.63
20228;BME280;12195;55.790;37.572;2023-02-28T01:35:24;100159.36;;;-5.89;72.62
20228;BME280;12195;55.790;37.572;2023-02-28T01:37:56;100152.67;;;-5.84;72.37
20228;BME280;12195;55.790;37.572;2023-02-28T01:40:30;100150.83;;;-5.91;72.40
20228;BME280;12195;55.790;37.572;2023-02-28T01:43:01;100145.87;;;-5.82;72.56
20228;BME280;12195;55.790;37.572;2023-02-28T01:45:34;100144.00;;;-5.92;72.25
20228;BME280;12195;55.790;37.572;2023-02-28T01:48:09;100146.50;;;-5.95;72.09
20228;BME280;12195;55.790;37.572;2023-02-28T01:50:43;100123.59;;;-5.89;72.18
20228;BME280;12195;55.790;37.572;2023-02-28T01:53:19;100121.72;;;-5.99;72.08
20228;BME280;12195;55.790;37.572;2023-02-28T01:55:53;100120.70;;;-6.09;72.22
20228;BME280;12195;55.790;37.572;2023-02-28T01:58:26;100115.68;;;-6.04;72.33
20228;BME280;12195;55.790;37.572;2023-02-28T02:00:58;100117.95;;;-6.19;72.42
20228;BME280;12195;55.790;37.572;2023-02-28T02:03:31;100113.66;;;-6.22;72.64
20228;BME280;12195;55.790;37.572;2023-02-28T02:06:04;100108.48;;;-6.25;72.76
20228;BME280;12195;55.790;37.572;2023-02-28T02:08:37;100105.09;;;-6.25;72.81
20228;BME280;12195;55.790;37.572;2023-02-28T02:11:11;100096.52;;;-6.27;72.85
20228;BME280;12195;55.790;37.572;2023-02-28T02:23:34;100094.96;;;-6.19;72.82
20228;BME280;12195;55.790;37.572;2023-02-28T02:31:18;100085.08;;;-6.00;72.39
20228;BME280;12195;55.790;37.572;2023-02-28T02:40:02;100074.08;;;-5.96;72.03
20228;BME280;12195;55.790;37.572;2023-02-28T02:42:36;100068.15;;;-5.93;72.06
20228;BME280;12195;55.790;37.572;2023-02-28T02:45:16;100069.02;;;-5.92;72.00
20228;BME280;12195;55.790;37.572;2023-02-28T02:47:43;100058.83;;;-5.91;71.96
20228;BME280;12195;55.790;37.572;2023-02-28T02:50:26;100041.81;;;-5.89;71.79
20228;BME280;12195;55.790;37.572;2023-02-28T02:52:55;100044.28;;;-5.95;71.90
20228;BME280;12195;55.790;37.572;2023-02-28T02:55:28;100038.47;;;-5.85;71.96
20228;BME280;12195;55.790;37.572;2023-02-28T02:58:05;100043.50;;;-5.91;71.92
20228;BME280;12195;55.790;37.572;2023-02-28T03:00:41;100026.48;;;-5.89;71.91
20228;BME280;12195;55.790;37.572;2023-02-28T03:03:14;100037.41;;;-5.99;71.87
20228;BME280;12195;55.790;37.572;2023-02-28T03:05:50;100032.20;;;-6.04;71.88
20228;BME280;12195;55.790;37.572;2023-02-28T03:08:22;100022.80;;;-6.06;72.08
20228;BME280;12195;55.790;37.572;2023-02-28T03:10:59;100017.64;;;-6.09;72.25
20228;BME280;12195;55.790;37.572;2023-02-28T03:16:53;100008.28;;;-6.09;72.36
20228;BME280;12195;55.790;37.572;2023-02-28T03:35:59;99967.36;;;-6.12;72.18
20228;BME280;12195;55.790;37.572;2023-02-28T03:41:23;99967.50;;;-6.04;72.00
20228;BME280;12195;55.790;37.572;2023-02-28T03:44:00;99952.19;;;-6.01;72.07
20228;BME280;12195;55.790;37.572;2023-02-28T03:46:35;99961.38;;;-6.14;71.97
20228;BME280;12195;55.790;37.572;2023-02-28T03:49:22;99961.44;;;-6.09;71.91
20228;BME280;12195;55.790;37.572;2023-02-28T03:51:49;99951.41;;;-5.98;71.55
20228;BME280;12195;55.790;37.572;2023-02-28T03:54:32;99964.86;;;-6.09;71.53
20228;BME280;12195;55.790;37.572;2023-02-28T03:57:10;99938.39;;;-6.14;71.54
20228;BME280;12195;55.790;37.572;2023-02-28T03:59:37;99931.65;;;-6.09;71.36
20228;BME280;12195;55.790;37.572;2023-02-28T04:02:10;99928.20;;;-6.12;71.43
20228;BME280;12195;55.790;37.572;2023-02-28T04:04:43;99923.24;;;-6.02;71.54
20228;BME280;12195;55.790;37.572;2023-02-28T04:07:17;99910.34;;;-6.09;71.15
20228;BME280;12195;55.790;37.572;2023-02-28T04:09:49;99910.42;;;-6.05;71.13
20228;BME280;12195;55.790;37.572;2023-02-28T04:12:22;99912.11;;;-6.07;70.85
20228;BME280;12195;55.790;37.572;2023-02-28T04:14:54;99912.03;;;-6.11;70.98
20228;BME280;12195;55.790;37.572;2023-02-28T04:17:27;99902.66;;;-6.12;71.14
20228;BME280;12195;55.790;37.572;2023-02-28T04:19:59;99910.21;;;-6.18;71.28
20228;BME280;12195;55.790;37.572;2023-02-28T04:22:31;99901.70;;;-6.17;71.43
20228;BME280;12195;55.790;37.572;2023-02-28T04:25:04;99899.98;;;-6.21;71.51
20228;BME280;12195;55.790;37.572;2023-02-28T04:27:37;99899.31;;;-6.08;71.28
20228;BME280;12195;55.790;37.572;2023-02-28T04:30:10;99889.86;;;-6.14;71.41
20228;BME280;12195;55.790;37.572;2023-02-28T04:32:42;99889.76;;;-6.21;71.57
20228;BME280;12195;55.790;37.572;2023-02-28T04:35:15;99887.30;;;-6.14;71.58
20228;BME280;12195;55.790;37.572;2023-02-28T04:37:47;99879.67;;;-6.12;71.60
20228;BME280;12195;55.790;37.572;2023-02-28T04:40:21;99876.33;;;-6.05;71.20
20228;BME280;12195;55.790;37.572;2023-02-28T04:42:53;99884.82;;;-6.08;71.36
20228;BME280;12195;55.790;37.572;2023-02-28T04:45:26;99858.48;;;-6.04;71.05
20228;BME280;12195;55.790;37.572;2023-02-28T04:47:59;99865.60;;;-5.81;70.35
20228;BME280;12195;55.790;37.572;2023-02-28T04:50:32;99851.09;;;-5.80;69.63
20228;BME280;12195;55.790;37.572;2023-02-28T04:53:04;99843.47;;;-5.77;69.53
20228;BME280;12195;55.790;37.572;2023-02-28T04:55:37;99845.23;;;-5.72;69.36
20228;BME280;12195;55.790;37.572;2023-02-28T04:58:11;99832.49;;;-5.69;69.42
20228;BME280;12195;55.790;37.572;2023-02-28T05:00:44;99838.50;;;-5.64;69.42
20228;BME280;12195;55.790;37.572;2023-02-28T05:03:16;99813.91;;;-5.52;69.29
20228;BME280;12195;55.790;37.572;2023-02-28T05:05:48;99835.41;;;-5.36;68.56
20228;BME280;12195;55.790;37.572;2023-02-28T05:08:22;99810.87;;;-5.15;67.60
20228;BME280;12195;55.790;37.572;2023-02-28T05:10:56;99810.14;;;-5.03;67.13
20228;BME280;12195;55.790;37.572;2023-02-28T05:13:29;99805.23;;;-4.76;66.83
20228;BME280;12195;55.790;37.572;2023-02-28T05:16:02;99797.02;;;-4.27;66.29
20228;BME280;12195;55.790;37.572;2023-02-28T05:18:34;99789.50;;;-3.97;64.09
20228;BME280;12195;55.790;37.572;2023-02-28T05:21:49;99788.70;;;-3.83;63.13
20228;BME280;12195;55.790;37.572;2023-02-28T05:23:48;99775.91;;;-3.74;62.93
20228;BME280;12195;55.790;37.572;2023-02-28T05:26:21;99771.61;;;-3.73;63.14
20228;BME280;12195;55.790;37.572;2023-02-28T05:28:54;99770.78;;;-3.68;62.62
20228;BME280;12195;55.790;37.572;2023-02-28T05:31:26;99764.87;;;-3.44;62.85
20228;BME280;12195;55.790;37.572;2023-02-28T05:33:59;99765.77;;;-2.94;60.54
20228;BME280;12195;55.790;37.572;2023-02-28T05:36:32;99734.03;;;-2.62;59.82
20228;BME280;12195;55.790;37.572;2023-02-28T05:39:06;99724.53;;;-2.27;57.95
20228;BME280;12195;55.790;37.572;2023-02-28T05:41:44;99737.42;;;-2.37;56.50
20228;BME280;12195;55.790;37.572;2023-02-28T05:44:16;99718.56;;;-2.41;57.61
20228;BME280;12195;55.790;37.572;2023-02-28T05:46:48;99709.11;;;-2.30;56.93
20228;BME280;12195;55.790;37.572;2023-02-28T05:49:21;99713.29;;;-2.05;56.72
20228;BME280;12195;55.790;37.572;2023-02-28T05:51:54;99715.80;;;-1.90;56.43
20228;BME280;12195;55.790;37.572;2023-02-28T05:54:26;99699.42;;;-1.75;55.90
20228;BME280;12195;55.790;37.572;2023-02-28T05:56:58;99701.92;;;-1.62;54.91
20228;BME280;12195;55.790;37.572;2023-02-28T05:59:30;99692.45;;;-1.60;53.94
20228;BME280;12195;55.790;37.572;2023-02-28T06:02:04;99689.94;;;-1.67;53.95
20228;BME280;12195;55.790;37.572;2023-02-28T06:04:36;99691.77;;;-1.84;54.25
20228;BME280;12195;55.790;37.572;2023-02-28T06:07:09;99683.12;;;-1.76;54.64
20228;BME280;12195;55.790;37.572;2023-02-28T06:09:41;99676.20;;;-1.68;52.75
20228;BME280;12195;55.790;37.572;2023-02-28T06:12:14;99650.48;;;-1.71;53.06
20228;BME280;12195;55.790;37.572;2023-02-28T06:14:47;99648.62;;;-1.48;53.22
20228;BME280;12195;55.790;37.572;2023-02-28T06:17:19;99661.12;;;-1.07;52.25
20228;BME280;12195;55.790;37.572;2023-02-28T06:19:51;99654.55;;;-0.51;52.28
20228;BME280;12195;55.790;37.572;2023-02-28T06:22:23;99643.81;;;-0.18;50.25
20228;BME280;12195;55.790;37.572;2023-02-28T06:24:56;99635.97;;;-0.10;50.47
20228;BME280;12195;55.790;37.572;2023-02-28T06:27:31;99640.47;;;-0.24;50.05
20228;BME280;12195;55.790;37.572;2023-02-28T06:30:05;99637.31;;;-0.49;49.81
20228;BME280;12195;55.790;37.572;2023-02-28T06:32:39;99619.64;;;-0.80;50.25
20228;BME280;12195;55.790;37.572;2023-02-28T06:35:11;99616.44;;;-1.03;50.36
20228;BME280;12195;55.790;37.572;2023-02-28T06:37:45;99619.28;;;-1.29;51.04
20228;BME280;12195;55.790;37.572;2023-02-28T06:40:18;99625.47;;;-1.52;51.96
20228;BME280;12195;55.790;37.572;2023-02-28T06:42:50;99612.74;;;-1.67;51.89
20228;BME280;12195;55.790;37.572;2023-02-28T06:45:23;99605.95;;;-1.79;52.51
20228;BME280;12195;55.790;37.572;2023-02-28T06:47:57;99601.75;;;-1.90;52.95
20228;BME280;12195;55.790;37.572;2023-02-28T06:50:31;99596.61;;;-1.92;53.00
20228;BME280;12195;55.790;37.572;2023-02-28T06:53:04;99579.55;;;-1.99;53.35
20228;BME280;12195;55.790;37.572;2023-02-28T06:55:38;99564.06;;;-1.96;53.42
20228;BME280;12195;55.790;37.572;2023-02-28T06:58:11;99576.91;;;-1.93;54.10
20228;BME280;12195;55.790;37.572;2023-02-28T07:00:50;99550.30;;;-1.87;54.22
20228;BME280;12195;55.790;37.572;2023-02-28T07:03:23;99557.14;;;-1.86;54.21
20228;BME280;12195;55.790;37.572;2023-02-28T07:05:55;99547.66;;;-1.80;54.68
20228;BME280;12195;55.790;37.572;2023-02-28T07:08:28;99543.31;;;-1.75;54.49
20228;BME280;12195;55.790;37.572;2023-02-28T07:11:01;99539.84;;;-1.69;54.55
20228;BME280;12195;55.790;37.572;2023-02-28T07:13:34;99533.86;;;-1.70;55.22
20228;BME280;12195;55.790;37.572;2023-02-28T07:16:10;99504.66;;;-1.66;54.48
20228;BME280;12195;55.790;37.572;2023-02-28T07:18:43;99514.00;;;-1.57;55.12
20228;BME280;12195;55.790;37.572;2023-02-28T07:21:16;99510.53;;;-1.53;55.21
20228;BME280;12195;55.790;37.572;2023-02-28T07:23:48;99507.87;;;-1.46;55.59
20228;BME280;12195;55.790;37.572;2023-02-28T07:26:20;99511.20;;;-1.35;55.41
20228;BME280;12195;55.790;37.572;2023-02-28T07:28:53;99499.05;;;-1.21;55.90
20228;BME280;12195;55.790;37.572;2023-02-28T07:31:26;99493.66;;;-1.03;55.74
20228;BME280;12195;55.790;37.572;2023-02-28T07:33:59;99479.84;;;-0.94;54.86
20228;BME280;12195;55.790;37.572;2023-02-28T07:36:31;99492.72;;;-0.94;54.71
20228;BME280;12195;55.790;37.572;2023-02-28T07:39:04;99487.61;;;-0.99;54.78
20228;BME280;12195;55.790;37.572;2023-02-28T07:41:36;99458.48;;;-1.04;55.35
20228;BME280;12195;55.790;37.572;2023-02-28T07:44:11;99482.37;;;-0.93;55.74
20228;BME280;12195;55.790;37.572;2023-02-28T07:46:43;99490.06;;;-0.90;55.55
20228;BME280;12195;55.790;37.572;2023-02-28T07:49:16;99479.73;;;-0.87;56.05
20228;BME280;12195;55.790;37.572;2023-02-28T07:51:48;99469.25;;;-0.73;56.03
20228;BME280;12195;55.790;37.572;2023-02-28T07:54:21;99457.02;;;-0.61;56.36
20228;BME280;12195;55.790;37.572;2023-02-28T07:56:53;99470.66;;;-0.53;56.20
20228;BME280;12195;55.790;37.572;2023-02-28T07:59:25;99460.91;;;-0.33;55.73
20228;BME280;12195;55.790;37.572;2023-02-28T08:01:59;99467.66;;;-0.24;55.34
20228;BME280;12195;55.790;37.572;2023-02-28T08:04:34;99468.56;;;-0.27;55.32
20228;BME280;12195;55.790;37.572;2023-02-28T08:07:07;99455.53;;;-0.19;55.63
20228;BME280;12195;55.790;37.572;2023-02-28T08:09:41;99453.71;;;-0.13;54.80
20228;BME280;12195;55.790;37.572;2023-02-28T08:12:13;99456.44;;;-0.22;55.16
20228;BME280;12195;55.790;37.572;2023-02-28T08:14:45;99434.22;;;-0.30;55.59
20228;BME280;12195;55.790;37.572;2023-02-28T08:17:18;99427.19;;;-0.21;55.80
20228;BME280;12195;55.790;37.572;2023-02-28T08:19:50;99429.83;;;-0.25;55.58
20228;BME280;12195;55.790;37.572;2023-02-28T08:22:22;99414.33;;;-0.24;56.08
20228;BME280;12195;55.790;37.572;2023-02-28T08:24:55;99390.91;;;-0.12;57.02
20228;BME280;12195;55.790;37.572;2023-02-28T08:27:28;99393.22;;;0.05;56.41
20228;BME280;12195;55.790;37.572;2023-02-28T08:30:01;99386.11;;;0.16;56.11
20228;BME280;12195;55.790;37.572;2023-02-28T08:32:34;99374.70;;;0.29;56.09
20228;BME280;12195;55.790;37.572;2023-02-28T08:35:07;99377.38;;;0.23;55.84
20228;BME280;12195;55.790;37.572;2023-02-28T08:37:40;99412.61;;;0.26;55.61
20228;BME280;12195;55.790;37.572;2023-02-28T08:40:12;99448.66;;;0.32;55.00
20228;BME280;12195;55.790;37.572;2023-02-28T08:42:47;99460.95;;;0.16;55.41
20228;BME280;12195;55.790;37.572;2023-02-28T08:45:19;99438.12;;;-0.07;56.20
20228;BME280;12195;55.790;37.572;2023-02-28T08:47:52;99440.22;;;-0.28;56.83
20228;BME280;12195;55.790;37.572;2023-02-28T08:50:25;99438.39;;;-0.22;57.29
20228;BME280;12195;55.790;37.572;2023-02-28T08:52:57;99419.78;;;-0.40;57.34
20228;BME280;12195;55.790;37.572;2023-02-28T08:55:31;99434.47;;;-0.45;57.80
20228;BME280;12195;55.790;37.572;2023-02-28T08:58:03;99431.95;;;-0.50;58.37
20228;BME280;12195;55.790;37.572;2023-02-28T09:00:36;99424.11;;;-0.44;58.09
20228;BME280;12195;55.790;37.572;2023-02-28T09:03:09;99418.93;;;-0.42;58.39
20228;BME280;12195;55.790;37.572;2023-02-28T09:05:42;99413.17;;;-0.58;58.95
20228;BME280;12195;55.790;37.572;2023-02-28T09:08:15;99401.02;;;-0.50;59.23
20228;BME280;12195;55.790;37.572;2023-02-28T09:10:48;99388.11;;;-0.48;59.20
20228;BME280;12195;55.790;37.572;2023-02-28T09:13:20;99389.76;;;-0.44;60.02
20228;BME280;12195;55.790;37.572;2023-02-28T09:15:53;99374.09;;;-0.32;59.43
20228;BME280;12195;55.790;37.572;2023-02-28T09:18:26;99373.95;;;-0.25;59.78
20228;BME280;12195;55.790;37.572;2023-02-28T09:20:58;99371.95;;;-0.09;59.31
20228;BME280;12195;55.790;37.572;2023-02-28T09:23:30;99380.20;;;0.09;58.39
20228;BME280;12195;55.790;37.572;2023-02-28T09:26:03;99360.66;;;-0.02;58.28
20228;BME280;12195;55.790;37.572;2023-02-28T09:28:35;99362.32;;;0.00;58.81
20228;BME280;12195;55.790;37.572;2023-02-28T09:31:13;99373.20;;;0.16;58.48
20228;BME280;12195;55.790;37.572;2023-02-28T09:33:50;99390.22;;;0.28;58.28
20228;BME280;12195;55.790;37.572;2023-02-28T09:36:24;99378.16;;;0.27;58.12
20228;BME280;12195;55.790;37.572;2023-02-28T09:38:59;99385.23;;;0.19;58.35
20228;BME280;12195;55.790;37.572;2023-02-28T09:41:39;99372.27;;;0.20;57.96
20228;BME280;12195;55.790;37.572;2023-02-28T09:44:22;99379.98;;;0.22;58.04
20228;BME280;12195;55.790;37.572;2023-02-28T09:46:51;99365.69;;;0.04;58.77
20228;BME280;12195;55.790;37.572;2023-02-28T09:49:28;99351.91;;;0.07;58.95
20228;BME280;12195;55.790;37.572;2023-02-28T09:52:10;99340.39;;;0.23;59.30
20228;BME280;12195;55.790;37.572;2023-02-28T09:54:40;99345.73;;;0.13;59.66
20228;BME280;12195;55.790;37.572;2023-02-28T09:57:35;99342.55;;;0.01;59.84
20228;BME280;12195;55.790;37.572;2023-02-28T10:00:03;99333.94;;;0.00;60.18
20228;BME280;12195;55.790;37.572;2023-02-28T10:05:56;99319.06;;;0.15;60.64
20228;BME280;12195;55.790;37.572;2023-02-28T10:08:22;99313.61;;;0.28;60.81
20228;BME280;12195;55.790;37.572;2023-02-28T10:10:55;99315.91;;;0.42;59.79
20228;BME280;12195;55.790;37.572;2023-02-28T10:13:33;99302.18;;;0.41;59.34
20228;BME280;12195;55.790;37.572;2023-02-28T10:16:14;99303.06;;;0.39;59.82
20228;BME280;12195;55.790;37.572;2023-02-28T10:18:52;99301.17;;;0.47;59.34
20228;BME280;12195;55.790;37.572;2023-02-28T10:21:43;99286.10;;;0.27;59.13
20228;BME280;12195;55.790;37.572;2023-02-28T10:24:26;99287.19;;;0.17;60.00
20228;BME280;12195;55.790;37.572;2023-02-28T10:27:15;99292.34;;;0.17;59.73
20228;BME280;12195;55.790;37.572;2023-02-28T10:29:53;99282.85;;;0.18;60.14
20228;BME280;12195;55.790;37.572;2023-02-28T10:32:34;99273.58;;;0.09;60.57
20228;BME280;12195;55.790;37.572;2023-02-28T10:35:15;99271.67;;;0.19;60.20
20228;BME280;12195;55.790;37.572;2023-02-28T10:38:00;99268.23;;;0.18;60.35
20228;BME280;12195;55.790;37.572;2023-02-28T10:40:34;99266.40;;;0.23;60.88
20228;BME280;12195;55.790;37.572;2023-02-28T10:43:18;99269.75;;;0.27;60.74
20228;BME280;12195;55.790;37.572;2023-02-28T10:46:02;99264.73;;;0.21;60.97
20228;BME280;12195;55.790;37.572;2023-02-28T10:48:44;99263.73;;;0.28;60.93
20228;BME280;12195;55.790;37.572;2023-02-28T10:51:18;99254.36;;;0.24;60.45
20228;BME280;12195;55.790;37.572;2023-02-28T10:53:52;99255.10;;;0.29;60.39
20228;BME280;12195;55.790;37.572;2023-02-28T10:56:27;99248.33;;;0.23;61.07
20228;BME280;12195;55.790;37.572;2023-02-28T11:01:51;99230.95;;;0.31;60.47
20228;BME280;12195;55.790;37.572;2023-02-28T11:04:32;99242.17;;;0.30;60.98
20228;BME280;12195;55.790;37.572;2023-02-28T11:07:17;99217.39;;;0.22;60.53
20228;BME280;12195;55.790;37.572;2023-02-28T11:09:59;99241.20;;;0.36;60.50
20228;BME280;12195;55.790;37.572;2023-02-28T11:12:29;99218.99;;;0.27;60.82
20228;BME280;12195;55.790;37.572;2023-02-28T11:18:46;99222.00;;;0.08;61.77
20228;BME280;12195;55.790;37.572;2023-02-28T11:20:31;99217.73;;;0.07;62.37
20228;BME280;12195;55.790;37.572;2023-02-28T11:23:05;99206.38;;;0.13;62.38
20228;BME280;12195;55.790;37.572;2023-02-28T11:25:39;99220.09;;;0.17;62.50
20228;BME280;12195;55.790;37.572;2023-02-28T11:28:29;99200.16;;;0.24;62.21
20228;BME280;12195;55.790;37.572;2023-02-28T11:31:05;99209.38;;;0.34;62.68
20228;BME280;12195;55.790;37.572;2023-02-28T11:33:43;99210.03;;;0.43;62.12
20228;BME280;12195;55.790;37.572;2023-02-28T11:38:55;99206.26;;;0.58;61.79
20228;BME280;12195;55.790;37.572;2023-02-28T11:44:23;99193.00;;;0.73;61.84
20228;BME280;12195;55.790;37.572;2023-02-28T11:46:58;99183.13;;;0.88;61.71
20228;BME280;12195;55.790;37.572;2023-02-28T11:50:00;99194.46;;;0.83;61.80
20228;BME280;12195;55.790;37.572;2023-02-28T11:52:42;99185.81;;;0.84;61.89
20228;BME280;12195;55.790;37.572;2023-02-28T11:55:32;99180.24;;;0.65;62.69
20228;BME280;12195;55.790;37.572;2023-02-28T11:58:23;99181.42;;;0.52;63.71
20228;BME280;12195;55.790;37.572;2023-02-28T12:06:51;99166.39;;;0.33;65.82
20228;BME280;12195;55.790;37.572;2023-02-28T12:09:40;99158.12;;;0.19;66.76
20228;BME280;12195;55.790;37.572;2023-02-28T12:12:22;99154.70;;;0.17;66.98
20228;BME280;12195;55.790;37.572;2023-02-28T12:15:28;99159.81;;;0.20;67.04
20228;BME280;12195;55.790;37.572;2023-02-28T12:20:53;99157.34;;;0.13;67.67
20228;BME280;12195;55.790;37.572;2023-02-28T12:23:44;99167.70;;;0.12;68.25
20228;BME280;12195;55.790;37.572;2023-02-28T12:26:19;99160.97;;;0.07;68.40
20228;BME280;12195;55.790;37.572;2023-02-28T12:28:57;99146.11;;;0.16;68.70
20228;BME280;12195;55.790;37.572;2023-02-28T12:31:30;99142.05;;;0.06;68.91
20228;BME280;12195;55.790;37.572;2023-02-28T12:34:06;99148.13;;;0.03;69.41
20228;BME280;12195;55.790;37.572;2023-02-28T12:36:40;99146.58;;;-0.05;69.80
20228;BME280;12195;55.790;37.572;2023-02-28T12:39:28;99147.36;;;0.00;70.00
20228;BME280;12195;55.790;37.572;2023-02-28T12:42:05;99127.84;;;-0.13;70.77
20228;BME280;12195;55.790;37.572;2023-02-28T12:44:59;99121.91;;;-0.17;70.63
20228;BME280;12195;55.790;37.572;2023-02-28T12:47:25;99123.72;;;-0.20;70.85
20228;BME280;12195;55.790;37.572;2023-02-28T12:50:04;99125.45;;;-0.22;71.06
20228;BME280;12195;55.790;37.572;2023-02-28T12:52:54;99117.64;;;-0.18;71.30
20228;BME280;12195;55.790;37.572;2023-02-28T12:58:43;99098.78;;;-0.21;71.66
20228;BME280;12195;55.790;37.572;2023-02-28T13:01:36;99067.12;;;-0.28;71.97
20228;BME280;12195;55.790;37.572;2023-02-28T13:09:33;99067.95;;;-0.26;72.14
20228;BME280;12195;55.790;37.572;2023-02-28T13:12:16;99076.58;;;-0.27;72.26
20228;BME280;12195;55.790;37.572;2023-02-28T13:14:50;99071.30;;;-0.22;72.23
20228;BME280;12195;55.790;37.572;2023-02-28T13:17:24;99068.88;;;-0.28;72.56
20228;BME280;12195;55.790;37.572;2023-02-28T13:19:58;99073.82;;;-0.19;72.27
20228;BME280;12195;55.790;37.572;2023-02-28T13:22:42;99071.42;;;-0.27;72.56
20228;BME280;12195;55.790;37.572;2023-02-28T13:27:56;99084.25;;;-0.25;72.55
20228;BME280;12195;55.790;37.572;2023-02-28T13:33:35;99079.90;;;-0.22;72.44
20228;BME280;12195;55.790;37.572;2023-02-28T13:39:00;99067.77;;;-0.18;72.77
20228;BME280;12195;55.790;37.572;2023-02-28T13:44:20;99046.95;;;-0.11;72.68
20228;BME280;12195;55.790;37.572;2023-02-28T13:49:34;99038.20;;;-0.04;72.68
20228;BME280;12195;55.790;37.572;2023-02-28T13:52:17;99035.56;;;-0.01;72.59
20228;BME280;12195;55.790;37.572;2023-02-28T13:55:06;99036.36;;;0.01;72.99
20228;BME280;12195;55.790;37.572;2023-02-28T14:00:52;99044.06;;;0.03;73.30
20228;BME280;12195;55.790;37.572;2023-02-28T14:06:17;99027.37;;;0.18;72.36
20228;BME280;12195;55.790;37.572;2023-02-28T14:11:45;99031.89;;;0.08;72.32
20228;BME280;12195;55.790;37.572;2023-02-28T14:17:15;99038.68;;;0.12;72.77
20228;BME280;12195;55.790;37.572;2023-02-28T14:19:48;99041.10;;;0.20;72.93
20228;BME280;12195;55.790;37.572;2023-02-28T14:22:49;99036.57;;;0.29;72.39
20228;BME280;12195;55.790;37.572;2023-02-28T14:25:31;99028.00;;;0.27;72.46
20228;BME280;12195;55.790;37.572;2023-02-28T14:28:19;99012.89;;;0.46;72.33
20228;BME280;12195;55.790;37.572;2023-02-28T14:36:20;99012.81;;;0.15;72.70
20228;BME280;12195;55.790;37.572;2023-02-28T14:38:57;99016.75;;;0.30;72.98
20228;BME280;12195;55.790;37.572;2023-02-28T14:41:35;99007.66;;;0.15;72.96
20228;BME280;12195;55.790;37.572;2023-02-28T14:44:23;98998.42;;;0.07;73.37
20228;BME280;12195;55.790;37.572;2023-02-28T14:46:59;98997.63;;;0.03;73.53
20228;BME280;12195;55.790;37.572;2023-02-28T14:49:44;98991.64;;;0.03;73.71
20228;BME280;12195;55.790;37.572;2023-02-28T14:52:20;98992.50;;;0.01;74.17
20228;BME280;12195;55.790;37.572;2023-02-28T14:55:03;98985.25;;;0.17;74.47
20228;BME280;12195;55.790;37.572;2023-02-28T14:57:39;98985.29;;;0.16;74.51
20228;BME280;12195;55.790;37.572;2023-02-28T15:00:14;98988.99;;;0.04;74.61
20228;BME280;12195;55.790;37.572;2023-02-28T15:02:47;98983.11;;;-0.01;74.89
20228;BME280;12195;55.790;37.572;2023-02-28T15:05:36;98982.97;;;0.05;75.19
20228;BME280;12195;55.790;37.572;2023-02-28T15:08:13;98982.15;;;0.03;75.35
20228;BME280;12195;55.790;37.572;2023-02-28T15:10:54;98993.42;;;-0.01;75.71
20228;BME280;12195;55.790;37.572;2023-02-28T15:16:17;99002.81;;;0.01;75.74
20228;BME280;12195;55.790;37.572;2023-02-28T15:19:07;98989.92;;;0.01;75.99
20228;BME280;12195;55.790;37.572;2023-02-28T15:21:29;98987.08;;;0.12;75.87